createdAt,value
2022-09-24T00:02:19.816Z,21.33
2022-09-24T00:07:24.588Z,20.92
2022-09-24T00:12:28.649Z,20.15
2022-09-24T00:17:31.095Z,20.15
2022-09-24T00:22:33.772Z,18.25
2022-09-24T00:27:37.918Z,17.67
2022-09-24T00:32:40.916Z,18.20
2022-09-24T00:37:43.391Z,18.40
2022-09-24T00:42:47.859Z,16.90
2022-09-24T00:47:52.349Z,17.88
2022-09-24T00:52:57.994Z,22.88
2022-09-24T00:58:05.407Z,18.17
2022-09-24T01:08:14.260Z,20.15
2022-09-24T01:13:43.093Z,20.88
2022-09-24T01:18:54.214Z,19.88
2022-09-24T01:24:29.532Z,22.48
2022-09-24T01:29:58.099Z,20.20
2022-09-24T01:35:03.651Z,20.05
2022-09-24T01:40:09.422Z,20.30
2022-09-24T01:45:16.424Z,23.50
2022-09-24T01:50:20.344Z,21.42
2022-09-24T01:55:26.752Z,20.80
2022-09-24T02:00:32.619Z,29.38
2022-09-24T02:05:40.352Z,21.38
2022-09-24T02:10:48.873Z,25.33
2022-09-24T02:15:58.183Z,26.27
2022-09-24T02:21:04.484Z,25.10
2022-09-24T02:26:07.665Z,22.52
2022-09-24T02:31:15.028Z,22.45
2022-09-24T02:36:18.433Z,21.92
2022-09-24T02:41:22.785Z,24.38
2022-09-24T02:46:26.769Z,22.77
2022-09-24T02:51:29.350Z,25.48
2022-09-24T02:56:31.793Z,30.85
2022-09-24T03:01:36.769Z,23.52
2022-09-24T03:06:39.595Z,24.70
2022-09-24T03:11:42.563Z,28.00
2022-09-24T03:16:46.885Z,29.52
2022-09-24T03:21:49.426Z,26.85
2022-09-24T03:26:52.105Z,24.13
2022-09-24T03:31:56.351Z,26.45
2022-09-24T03:36:58.738Z,25.70
2022-09-24T03:42:01.738Z,24.23
2022-09-24T03:47:05.882Z,23.90
2022-09-24T03:52:08.851Z,24.00
2022-09-24T03:57:11.386Z,24.13
2022-09-24T04:02:15.858Z,25.85
2022-09-24T04:07:18.678Z,32.22
2022-09-24T04:12:21.061Z,25.63
2022-09-24T04:17:24.894Z,31.58
2022-09-24T04:22:28.011Z,30.38
2022-09-24T04:27:30.881Z,31.45
2022-09-24T04:32:35.244Z,29.02
2022-09-24T04:37:38.433Z,31.65
2022-09-24T04:42:42.215Z,29.88
2022-09-24T04:47:47.135Z,28.40
2022-09-24T04:52:49.593Z,29.05
2022-09-24T04:57:52.773Z,28.85
2022-09-24T05:03:01.135Z,32.50
2022-09-24T05:08:03.865Z,31.65
2022-09-24T05:13:06.357Z,33.85
2022-09-24T05:18:10.315Z,31.48
2022-09-24T05:23:12.608Z,34.03
2022-09-24T05:28:15.069Z,28.77
2022-09-24T05:33:18.976Z,31.35
2022-09-24T05:38:21.753Z,31.88
2022-09-24T05:43:24.619Z,27.23
2022-09-24T05:48:29.262Z,27.65
2022-09-24T05:53:31.871Z,28.73
2022-09-24T05:58:34.354Z,27.92
2022-09-24T06:03:38.108Z,27.33
2022-09-24T06:08:40.450Z,29.65
2022-09-24T06:13:45.956Z,27.80
2022-09-24T06:18:49.905Z,25.83
2022-09-24T06:23:52.192Z,22.45
2022-09-24T06:28:54.697Z,22.85
2022-09-24T06:33:58.678Z,25.70
2022-09-24T06:39:01.067Z,23.60
2022-09-24T06:44:03.618Z,20.90
2022-09-24T06:49:07.894Z,25.23
2022-09-24T06:54:10.409Z,23.80
2022-09-24T06:59:13.287Z,20.40
2022-09-24T07:04:17.081Z,22.90
2022-09-24T07:09:19.535Z,21.90
2022-09-24T07:14:21.871Z,20.95
2022-09-24T07:19:25.660Z,25.48
2022-09-24T07:24:27.949Z,22.30
2022-09-24T07:29:30.321Z,26.08
2022-09-24T07:34:34.425Z,27.33
2022-09-24T07:39:36.771Z,22.90
2022-09-24T07:44:39.131Z,25.45
2022-09-24T07:49:43.060Z,31.50
2022-09-24T07:54:45.471Z,27.10
2022-09-24T07:59:48.007Z,29.02
2022-09-24T08:04:52.146Z,28.10
2022-09-24T08:09:55.103Z,27.13
2022-09-24T08:14:57.512Z,28.77
2022-09-24T08:20:02.372Z,28.02
2022-09-24T08:25:06.216Z,23.55
2022-09-24T08:30:10.343Z,24.48
2022-09-24T08:35:14.854Z,23.85
2022-09-24T08:40:20.294Z,27.20
2022-09-24T08:45:23.127Z,26.92
2022-09-24T08:50:30.456Z,26.95
2022-09-24T09:00:44.275Z,27.30
2022-09-24T09:05:56.309Z,22.95
2022-09-24T09:11:04.251Z,31.45
2022-09-24T09:16:13.691Z,22.10
2022-09-24T09:21:21.775Z,24.85
2022-09-24T09:26:25.975Z,21.42
2022-09-24T09:31:40.347Z,22.83
2022-09-24T09:37:00.068Z,19.60
2022-09-24T09:42:09.824Z,17.23
2022-09-24T09:47:23.768Z,15.00
2022-09-24T09:52:30.971Z,14.40
2022-09-24T10:02:41.767Z,16.02
2022-09-24T10:07:47.161Z,20.35
2022-09-24T10:12:52.194Z,15.25
2022-09-24T10:17:55.220Z,11.52
2022-09-24T10:23:03.421Z,12.35
2022-09-24T10:28:09.540Z,17.77
2022-09-24T10:33:12.119Z,9.82
2022-09-24T10:38:21.118Z,8.52
2022-09-24T10:43:23.791Z,7.90
2022-09-24T10:48:27.989Z,7.93
2022-09-24T10:53:48.562Z,7.88
2022-09-24T10:59:31.063Z,7.72
2022-09-24T11:04:47.929Z,6.47
2022-09-24T11:09:59.365Z,6.13
2022-09-24T11:15:21.556Z,6.28
2022-09-24T11:20:33.790Z,5.88
2022-09-24T11:25:47.313Z,5.07
2022-09-24T11:31:04.994Z,5.32
2022-09-24T11:36:24.144Z,4.30
2022-09-24T11:41:43.760Z,4.10
2022-09-24T11:47:01.422Z,4.45
2022-09-24T11:52:10.906Z,5.75
2022-09-24T11:57:21.579Z,5.00
2022-09-24T12:02:32.129Z,5.35
2022-09-24T12:07:43.785Z,4.50
2022-09-24T12:12:49.945Z,3.67
2022-09-24T12:17:55.806Z,3.53
2022-09-24T12:23:04.296Z,3.17
2022-09-24T12:28:12.581Z,3.40
2022-09-24T12:33:22.416Z,2.67
2022-09-24T12:38:32.977Z,4.00
2022-09-24T12:43:43.118Z,10.82
2022-09-24T12:48:48.700Z,6.47
2022-09-24T12:54:00.798Z,5.10
2022-09-24T12:59:05.301Z,4.13
2022-09-24T13:04:27.031Z,3.33
2022-09-24T13:09:38.815Z,4.05
2022-09-24T13:14:51.521Z,4.32
2022-09-24T13:20:00.263Z,4.72
2022-09-24T13:25:23.330Z,4.90
2022-09-24T13:30:38.800Z,12.02
2022-09-24T13:35:48.250Z,9.55
2022-09-24T13:40:57.089Z,7.70
2022-09-24T13:46:08.221Z,9.45
2022-09-24T13:51:15.028Z,11.15
2022-09-24T13:56:21.070Z,11.05
2022-09-24T14:01:27.632Z,11.50
2022-09-24T14:06:37.930Z,12.17
2022-09-24T14:11:57.168Z,13.05
2022-09-24T14:17:15.365Z,13.80
2022-09-24T14:22:22.492Z,14.93
2022-09-24T14:27:26.973Z,13.48
2022-09-24T14:32:34.214Z,31.05
2022-09-24T14:42:45.505Z,15.93
2022-09-24T14:48:03.184Z,15.82
2022-09-24T14:53:19.136Z,15.50
2022-09-24T14:58:35.656Z,15.65
2022-09-24T15:03:43.600Z,32.40
2022-09-24T15:08:55.401Z,17.70
2022-09-24T15:14:11.979Z,20.70
2022-09-24T15:19:20.274Z,17.52
2022-09-24T15:24:30.299Z,16.52
2022-09-24T15:29:33.487Z,19.48
2022-09-24T15:34:37.372Z,14.52
2022-09-24T15:39:40.286Z,15.05
2022-09-24T15:44:44.407Z,19.15
2022-09-24T15:49:48.652Z,13.20
2022-09-24T15:54:51.698Z,20.25
2022-09-24T15:59:55.374Z,9.77
2022-09-24T16:05:03.560Z,6.80
2022-09-24T16:10:10.289Z,4.78
2022-09-24T16:15:14.528Z,13.77
2022-09-24T16:20:20.304Z,10.15
2022-09-24T16:25:22.988Z,6.88
2022-09-24T16:30:25.467Z,24.83
2022-09-24T16:35:29.568Z,5.20
2022-09-24T16:40:32.451Z,8.43
2022-09-24T16:45:39.600Z,8.88
2022-09-24T16:50:43.861Z,4.40
2022-09-24T16:55:46.729Z,5.43
2022-09-24T17:00:50.620Z,3.88
2022-09-24T17:05:58.814Z,11.10
2022-09-24T17:11:01.666Z,5.75
2022-09-24T17:16:04.365Z,3.15
2022-09-24T17:21:11.573Z,6.15
2022-09-24T17:26:16.812Z,1.95
2022-09-24T17:31:22.161Z,12.40
2022-09-24T17:36:28.482Z,5.15
2022-09-24T17:41:31.253Z,4.05
2022-09-24T17:46:33.874Z,4.72
2022-09-24T17:51:38.544Z,6.45
2022-09-24T17:56:41.405Z,6.28
2022-09-24T18:01:45.778Z,4.15
2022-09-24T18:06:50.641Z,5.35
2022-09-24T18:11:53.218Z,6.15
2022-09-24T18:16:55.763Z,3.80
2022-09-24T18:21:59.820Z,5.78
2022-09-24T18:27:02.480Z,7.30
2022-09-24T18:32:17.190Z,5.00
2022-09-24T18:37:32.252Z,4.82
2022-09-24T18:42:35.683Z,4.32
2022-09-24T18:47:38.760Z,7.82
2022-09-24T18:52:44.213Z,5.47
2022-09-24T18:57:46.772Z,5.38
2022-09-24T19:02:49.942Z,5.40
2022-09-24T19:07:56.054Z,6.25
2022-09-24T19:12:58.453Z,17.90
2022-09-24T19:18:00.966Z,21.67
2022-09-24T19:23:05.212Z,17.02
2022-09-24T19:28:10.101Z,14.18
2022-09-24T19:33:14.869Z,18.70
2022-09-24T19:38:18.614Z,8.55
2022-09-24T19:43:20.942Z,8.82
2022-09-24T19:48:24.209Z,6.97
2022-09-24T19:53:28.509Z,7.38
2022-09-24T19:58:32.471Z,12.32
2022-09-24T20:03:36.141Z,19.30
2022-09-24T20:08:40.671Z,17.85
2022-09-24T20:13:44.361Z,11.73
2022-09-24T20:18:46.806Z,11.27
2022-09-24T20:23:56.357Z,8.68
2022-09-24T20:28:58.852Z,9.90
2022-09-24T20:34:01.151Z,5.18
2022-09-24T20:39:05.021Z,7.03
2022-09-24T20:44:07.684Z,5.93
2022-09-24T20:49:18.659Z,7.32
2022-09-24T20:54:22.961Z,4.28
2022-09-24T20:59:26.661Z,6.15
2022-09-24T21:04:29.137Z,5.53
2022-09-24T21:09:33.191Z,7.40
2022-09-24T21:14:36.162Z,5.95
2022-09-24T21:19:38.978Z,8.10
2022-09-24T21:24:43.331Z,7.57
2022-09-24T21:29:46.246Z,4.18
2022-09-24T21:34:48.953Z,4.30
2022-09-24T21:39:52.846Z,10.60
2022-09-24T21:44:55.366Z,5.68
2022-09-24T21:49:57.838Z,9.23
2022-09-24T21:55:02.092Z,6.93
2022-09-24T22:00:05.465Z,6.97
2022-09-24T22:05:08.824Z,4.35
2022-09-24T22:10:13.351Z,4.93
2022-09-24T22:15:15.804Z,4.70
2022-09-24T22:20:18.600Z,4.47
2022-09-24T22:25:23.550Z,7.07
2022-09-24T22:30:26.690Z,7.28
2022-09-24T22:35:29.748Z,3.55
2022-09-24T22:40:35.511Z,4.13
2022-09-24T22:45:38.088Z,5.60
2022-09-24T22:50:40.595Z,6.00
2022-09-24T22:55:46.434Z,6.43
2022-09-24T23:00:50.656Z,9.88
2022-09-24T23:05:53.052Z,3.28
2022-09-24T23:10:57.204Z,9.75
2022-09-24T23:16:07.168Z,4.30
2022-09-24T23:21:10.996Z,4.95
2022-09-24T23:26:17.590Z,5.43
2022-09-24T23:31:21.618Z,5.27
2022-09-24T23:36:25.314Z,5.35
2022-09-24T23:41:29.987Z,5.20
2022-09-24T23:46:32.729Z,7.65
2022-09-24T23:51:36.744Z,7.20
2022-09-24T23:56:40.607Z,6.20
